Jacksonville Naval Air Station
KNIP : now visible

Airfield :











YOU CAN JOIN US ON...

 
LOGIN :

Register | Disclaimer

   EN    FR    IT 

 









Legend :    VFR   Marginal VFR   IFR   Intensive IFR   Very Intensive IFR
Visi :
Ceiling :
>= 8 km
>= 3000ft
5 to 8 km
1000 to 3000 ft
1500m to 5 km
500 to 1000 ft
800 to 1500m
200 to 500 ft
< 800m
< 200 ft
Symbols :   Thunderstorms  Fog  Heavy snow  Heavy precipitations  Wind > 20 kt






- Airport Elevation : 21 ft


KNIP - Jacksonville Naval Air Station

CURRENT METAR :
  • 061453Z 02004KT 10SM FEW020 FEW100 SCT150 BKN250 16/07 A3023 RMK AO2 SLP233 T01610067 51010 $

EXPIRED METARs :
  • 061353Z 00000KT 10SM FEW020 SCT100 SCT250 12/08 A3022 RMK AO2 SLP230 T01220083 $
  • 061253Z 27004KT 10SM FEW100 SCT250 09/06 A3022 RMK AO2 SLP229 T00890061 $

TAF TAF KNIP
Valid from the 06 at 15:00 until the 07 at 15:00 UTC


0615/0715 VRB05KT 9999 FEW020 FEW100 SCT150 BKN250 611209 QNH3018INS
FM061700 21008KT 9999 SCT030 SCT100 BKN150 BKN250 611209 522009 522909 QNH3012INS
FM062300 27006KT 9999 SCT020 SCT060 BKN120 BKN200 641209 532009 532909 QNH3014INS
FM070500 33010KT 9999 SCT015 BKN030 BKN100 BKN200 641209 522009 522909 QNH3012INS
FM071200 36008KT 9999 BKN080 BKN250 600000 512009 512909 QNH3016INS T23/0620Z T12/0712Z FN20061



MET'MAP, your aeronautical weather chart ! - Copyright ORBIFLY December 2007 - Disclaimer

ORBIFLY MET'MAP TEAM :

Programming & Development : Alexandra Zaïnal
Concept & original design : Baudouin d'Aumeries
Assistance for programming : Marc-Olivier Méhu
Technical & hardware support : Manuel Goepfert

Contact : metmap@orbifly.com




SOURCES & CREDITS :

   NOAA       Earth
Advisory